Dallas, Wisconsin
Current Conditions -  °F | °C
As of 6:15 AM on Sunday 25 Jan 2015 (Local Time) from KY23 Reporting Station
Overcast Overcast  
Wind Chill:   Ceiling: 3300
Heat Index: 17°   Visibility: 10mi
Dew Point: 10°   Wind: 13mph
Humidity: 73%   Direction: 20°NNE
Pressure: 29.91"   Gusts: 18mph
Location:  45.26°N, 91.81°W
Report Text: KY23 251215Z AUTO 02011G16KT 10SM OVC033 M08/M12 A2991 RMK AO2 T10851125
Loading
Personal Weather Stations






























Interactive Weather Map New forecast layout! Learn more

10-Day Weather Forecast

Advertisements
Track Severe Weather on mobile